createdAt,value
2019-02-14T00:01:49.365Z,99716.77
2019-02-14T00:04:18.827Z,99721.67
2019-02-14T00:06:48.303Z,99726.63
2019-02-14T00:09:17.808Z,99728.03
2019-02-14T00:11:47.276Z,99721.53
2019-02-14T00:14:17.025Z,99729.70
2019-02-14T00:16:46.457Z,99727.16
2019-02-14T00:19:15.910Z,99730.92
2019-02-14T00:21:45.357Z,99732.05
2019-02-14T00:24:14.837Z,99737.33
2019-02-14T00:26:44.303Z,99734.14
2019-02-14T00:29:13.776Z,99729.45
2019-02-14T00:31:43.232Z,99736.52
2019-02-14T00:34:12.692Z,99730.44
2019-02-14T00:36:42.173Z,99736.39
2019-02-14T00:39:11.622Z,99736.59
2019-02-14T00:41:41.085Z,99729.06
2019-02-14T00:44:10.561Z,99727.98
2019-02-14T00:46:40.885Z,99722.64
2019-02-14T00:49:10.369Z,99728.64
2019-02-14T00:51:39.824Z,99727.56
2019-02-14T00:54:09.280Z,99725.38
2019-02-14T00:56:38.760Z,99723.62
2019-02-14T00:59:08.236Z,99724.97
2019-02-14T01:01:37.693Z,99725.03
2019-02-14T01:04:07.398Z,99724.30
2019-02-14T01:06:36.873Z,99728.36
2019-02-14T01:09:07.266Z,99725.42
2019-02-14T01:11:36.742Z,99721.59
2019-02-14T01:14:06.218Z,99718.64
2019-02-14T01:16:35.674Z,99711.70
2019-02-14T01:19:05.267Z,99722.82
2019-02-14T01:21:34.741Z,99728.89
2019-02-14T01:24:04.195Z,99733.61
2019-02-14T01:26:33.658Z,99733.56
2019-02-14T01:29:03.140Z,99737.37
2019-02-14T01:31:32.602Z,99736.16
2019-02-14T01:34:02.057Z,99739.32
2019-02-14T01:36:31.531Z,99740.73
2019-02-14T01:39:00.987Z,99739.48
2019-02-14T01:41:30.514Z,99743.09
2019-02-14T01:43:59.988Z,99733.98
2019-02-14T01:46:29.451Z,99732.02
2019-02-14T01:48:58.986Z,99737.99
2019-02-14T01:51:28.464Z,99732.98
2019-02-14T01:53:57.920Z,99734.95
2019-02-14T01:56:27.402Z,99731.91
2019-02-14T01:58:56.860Z,99729.11
2019-02-14T02:01:26.594Z,99735.71
2019-02-14T02:03:56.072Z,99730.80
2019-02-14T02:06:25.599Z,99722.06
2019-02-14T02:08:55.055Z,99719.07
2019-02-14T02:11:24.524Z,99707.80
2019-02-14T02:13:54.047Z,99710.73
2019-02-14T02:16:23.507Z,99708.14
2019-02-14T02:18:52.985Z,99704.28
2019-02-14T02:21:22.441Z,99705.39
2019-02-14T02:23:51.990Z,99710.38
2019-02-14T02:26:21.774Z,99714.72
2019-02-14T02:28:51.235Z,99712.37
2019-02-14T02:31:20.699Z,99723.28
2019-02-14T02:33:50.415Z,99722.56
2019-02-14T02:36:19.869Z,99716.11
2019-02-14T02:38:49.326Z,99720.38
2019-02-14T02:41:18.803Z,99725.56
2019-02-14T02:43:48.263Z,99720.23
2019-02-14T02:46:17.738Z,99720.39
2019-02-14T02:48:47.199Z,99719.73
2019-02-14T02:51:16.674Z,99720.14
2019-02-14T02:53:46.158Z,99713.33
2019-02-14T02:56:15.622Z,99720.81
2019-02-14T02:58:45.076Z,99721.94
2019-02-14T03:01:14.563Z,99722.45
2019-02-14T03:03:44.019Z,99736.02
2019-02-14T03:06:13.473Z,99734.51
2019-02-14T03:08:42.944Z,99738.46
2019-02-14T03:11:12.498Z,99739.08
2019-02-14T03:13:41.983Z,99735.75
2019-02-14T03:16:11.457Z,99738.94
2019-02-14T03:18:40.929Z,99739.36
2019-02-14T03:21:10.387Z,99750.09
2019-02-14T03:23:39.877Z,99754.88
2019-02-14T03:26:09.332Z,99758.45
2019-02-14T03:28:38.791Z,99763.61
2019-02-14T03:31:08.274Z,99760.88
2019-02-14T03:33:37.735Z,99758.04
2019-02-14T03:36:07.223Z,99760.05
2019-02-14T03:38:36.661Z,99763.61
2019-02-14T03:41:06.112Z,99758.20
2019-02-14T03:43:35.655Z,99751.58
2019-02-14T03:46:05.117Z,99754.44
2019-02-14T03:48:34.600Z,99746.97
2019-02-14T03:51:04.116Z,99744.94
2019-02-14T03:53:33.594Z,99741.94
2019-02-14T03:56:03.076Z,99751.08
2019-02-14T03:58:32.530Z,99753.91
2019-02-14T04:01:02.014Z,99766.86
2019-02-14T04:03:31.495Z,99768.50
2019-02-14T04:06:00.967Z,99766.61
2019-02-14T04:08:30.718Z,99765.95
2019-02-14T04:11:00.219Z,99768.80
2019-02-14T04:13:29.649Z,99769.20
2019-02-14T04:15:59.130Z,99760.34
2019-02-14T04:18:28.684Z,99756.98
2019-02-14T04:20:58.143Z,99762.78
2019-02-14T04:23:27.605Z,99767.72
2019-02-14T04:25:57.072Z,99766.64
2019-02-14T04:28:26.556Z,99772.83
2019-02-14T04:30:56.006Z,99772.92
2019-02-14T04:33:25.486Z,99772.73
2019-02-14T04:35:54.963Z,99765.61
2019-02-14T04:38:24.425Z,99775.23
2019-02-14T04:40:53.906Z,99769.36
2019-02-14T04:43:23.373Z,99765.01
2019-02-14T04:45:52.825Z,99767.64
2019-02-14T04:48:22.311Z,99758.42
2019-02-14T04:50:51.782Z,99761.98
2019-02-14T04:53:22.250Z,99756.63
2019-02-14T04:55:51.973Z,99757.29
2019-02-14T04:58:22.292Z,99761.45
2019-02-14T05:00:51.753Z,99756.60
2019-02-14T05:03:22.255Z,99760.16
2019-02-14T05:05:51.733Z,99757.09
2019-02-14T05:08:22.544Z,99762.65
2019-02-14T05:10:52.070Z,99760.28
2019-02-14T05:13:22.289Z,99758.84
2019-02-14T05:15:51.751Z,99763.28
2019-02-14T05:18:22.356Z,99763.18
2019-02-14T05:20:51.815Z,99759.25
2019-02-14T05:23:24.519Z,99757.59
2019-02-14T05:27:06.493Z,99769.05
2019-02-14T05:28:52.024Z,99773.95
2019-02-14T05:31:21.483Z,99769.39
2019-02-14T05:33:50.967Z,99767.16
2019-02-14T05:36:20.703Z,99762.97
2019-02-14T05:38:50.165Z,99772.70
2019-02-14T05:41:19.652Z,99767.16
2019-02-14T05:43:49.108Z,99763.03
2019-02-14T05:46:18.609Z,99762.02
2019-02-14T05:48:48.067Z,99764.70
2019-02-14T05:51:17.528Z,99755.98
2019-02-14T05:53:47.014Z,99757.81
2019-02-14T05:56:16.490Z,99755.98
2019-02-14T05:58:45.958Z,99752.82
2019-02-14T06:01:17.392Z,99752.11
2019-02-14T06:03:46.865Z,99748.70
2019-02-14T06:06:16.424Z,99748.70
2019-02-14T06:08:45.943Z,99755.05
2019-02-14T06:11:15.436Z,99765.97
2019-02-14T06:13:45.004Z,99766.13
2019-02-14T06:16:14.577Z,99766.22
2019-02-14T06:18:44.096Z,99774.52
2019-02-14T06:21:13.650Z,99778.78
2019-02-14T06:23:43.168Z,99786.00
2019-02-14T06:26:12.684Z,99803.48
2019-02-14T06:28:42.236Z,99807.70
2019-02-14T06:31:11.789Z,99820.02
2019-02-14T06:33:41.300Z,99818.66
2019-02-14T06:36:10.849Z,99823.39
2019-02-14T06:38:40.415Z,99827.41
2019-02-14T06:41:09.943Z,99830.55
2019-02-14T06:43:39.521Z,99828.15
2019-02-14T06:46:09.074Z,99820.36
2019-02-14T06:48:38.662Z,99818.85
2019-02-14T06:51:08.193Z,99817.19
2019-02-14T06:53:37.707Z,99823.75
2019-02-14T06:56:07.172Z,99825.36
2019-02-14T06:58:36.764Z,99821.32
2019-02-14T07:01:06.286Z,99815.20
2019-02-14T07:03:35.849Z,99811.66
2019-02-14T07:06:05.444Z,99817.42
2019-02-14T07:08:35.014Z,99814.58
2019-02-14T07:11:04.605Z,99822.02
2019-02-14T07:13:34.165Z,99819.64
2019-02-14T07:16:03.681Z,99826.41
2019-02-14T07:18:33.183Z,99832.27
2019-02-14T07:21:02.714Z,99829.18
2019-02-14T07:23:32.240Z,99826.84
2019-02-14T07:26:01.759Z,99823.83
2019-02-14T07:28:31.302Z,99831.13
2019-02-14T07:31:00.844Z,99837.17
2019-02-14T07:33:30.391Z,99839.36
2019-02-14T07:35:59.902Z,99835.77
2019-02-14T07:38:29.426Z,99842.27
2019-02-14T07:40:58.973Z,99859.28
2019-02-14T07:43:28.531Z,99863.11
2019-02-14T07:45:58.079Z,99873.62
2019-02-14T07:48:27.663Z,99883.62
2019-02-14T07:50:57.242Z,99883.87
2019-02-14T07:53:26.784Z,99881.54
2019-02-14T07:55:56.728Z,99892.44
2019-02-14T07:58:26.347Z,99893.64
2019-02-14T08:00:55.867Z,99894.72
2019-02-14T08:03:25.380Z,99885.02
2019-02-14T08:05:54.877Z,99880.92
2019-02-14T08:08:24.419Z,99881.79
2019-02-14T08:10:53.972Z,99888.49
2019-02-14T08:13:23.508Z,99898.56
2019-02-14T08:15:53.041Z,99892.20
2019-02-14T08:18:22.850Z,99890.94
2019-02-14T08:20:52.349Z,99893.80
2019-02-14T08:23:22.900Z,99895.56
2019-02-14T08:25:52.408Z,99899.57
2019-02-14T08:28:22.785Z,99894.20
2019-02-14T08:30:52.400Z,99898.41
2019-02-14T08:33:22.815Z,99890.70
2019-02-14T08:35:52.354Z,99902.86
2019-02-14T08:38:22.817Z,99896.32
2019-02-14T08:40:52.320Z,99899.50
2019-02-14T08:43:22.813Z,99901.64
2019-02-14T08:45:52.343Z,99901.98
2019-02-14T08:48:23.181Z,99897.90
2019-02-14T08:50:52.667Z,99890.12
2019-02-14T08:53:23.038Z,99887.44
2019-02-14T08:55:52.545Z,99875.80
2019-02-14T08:58:23.045Z,99873.95
2019-02-14T09:00:52.601Z,99877.19
2019-02-14T09:03:23.170Z,99882.75
2019-02-14T09:05:52.689Z,99876.83
2019-02-14T09:08:23.314Z,99884.69
2019-02-14T09:10:52.827Z,99888.94
2019-02-14T09:13:23.214Z,99893.66
2019-02-14T09:15:52.809Z,99886.22
2019-02-14T09:18:23.235Z,99882.40
2019-02-14T09:20:52.794Z,99884.53
2019-02-14T09:23:23.137Z,99882.27
2019-02-14T09:25:52.579Z,99886.02
2019-02-14T09:28:23.144Z,99886.19
2019-02-14T09:30:52.601Z,99892.30
2019-02-14T09:33:23.327Z,99893.33
2019-02-14T09:35:52.781Z,99881.74
2019-02-14T09:38:23.265Z,99879.67
2019-02-14T09:40:52.749Z,99881.50
2019-02-14T09:43:29.636Z,99881.19
2019-02-14T09:45:54.424Z,99883.87
2019-02-14T09:48:23.878Z,99883.37
2019-02-14T09:50:53.323Z,99887.02
2019-02-14T09:53:23.353Z,99877.06
2019-02-14T09:55:52.786Z,99872.61
2019-02-14T09:58:23.299Z,99876.30
2019-02-14T10:00:52.733Z,99875.58
2019-02-14T10:03:23.406Z,99878.04
2019-02-14T10:05:52.892Z,99882.25
2019-02-14T10:08:23.451Z,99874.02
2019-02-14T10:10:52.924Z,99879.72
2019-02-14T10:13:23.487Z,99876.34
2019-02-14T10:15:53.031Z,99877.24
2019-02-14T10:18:23.429Z,99871.16
2019-02-14T10:20:52.897Z,99878.34
2019-02-14T10:23:23.452Z,99869.11
2019-02-14T10:25:52.920Z,99868.88
2019-02-14T10:28:23.432Z,99871.66
2019-02-14T10:30:52.956Z,99870.05
2019-02-14T10:33:23.652Z,99863.91
2019-02-14T10:35:53.128Z,99861.54
2019-02-14T10:38:23.626Z,99857.20
2019-02-14T10:40:53.078Z,99854.14
2019-02-14T10:43:23.644Z,99853.73
2019-02-14T10:45:53.099Z,99860.06
2019-02-14T10:48:23.663Z,99854.84
2019-02-14T10:50:53.482Z,99852.45
2019-02-14T10:53:23.808Z,99844.54
2019-02-14T10:55:53.273Z,99846.99
2019-02-14T10:58:23.816Z,99837.33
2019-02-14T11:00:53.284Z,99835.13
2019-02-14T11:03:23.988Z,99836.80
2019-02-14T11:05:53.438Z,99839.39
2019-02-14T11:08:31.376Z,99832.94
2019-02-14T11:10:55.265Z,99831.00
2019-02-14T11:13:24.727Z,99830.78
2019-02-14T11:15:54.327Z,99827.55
2019-02-14T11:18:24.181Z,99825.23
2019-02-14T11:20:53.654Z,99824.09
2019-02-14T11:23:24.170Z,99826.23
2019-02-14T11:25:53.624Z,99827.13
2019-02-14T11:28:24.204Z,99825.30
2019-02-14T11:30:53.664Z,99808.41
2019-02-14T11:33:24.185Z,99807.52
2019-02-14T11:35:53.653Z,99802.44
2019-02-14T11:38:24.187Z,99801.86
2019-02-14T11:40:53.663Z,99804.55
2019-02-14T11:43:24.450Z,99804.74
2019-02-14T11:45:53.908Z,99808.92
2019-02-14T11:48:24.289Z,99812.12
2019-02-14T11:50:53.767Z,99815.12
2019-02-14T11:53:24.231Z,99819.98
2019-02-14T11:55:53.694Z,99823.13
2019-02-14T11:58:24.224Z,99822.69
2019-02-14T12:00:53.694Z,99816.44
2019-02-14T12:03:24.212Z,99823.69
2019-02-14T12:05:53.941Z,99815.48
2019-02-14T12:08:24.212Z,99814.61
2019-02-14T12:10:53.676Z,99806.41
2019-02-14T12:13:24.201Z,99802.13
2019-02-14T12:15:53.657Z,99801.73
2019-02-14T12:18:24.229Z,99794.28
2019-02-14T12:20:53.760Z,99794.46
2019-02-14T12:23:24.177Z,99794.43
2019-02-14T12:25:53.665Z,99792.88
2019-02-14T12:28:24.243Z,99784.02
2019-02-14T12:30:53.705Z,99785.25
2019-02-14T12:33:24.222Z,99776.52
2019-02-14T12:35:53.704Z,99779.11
2019-02-14T12:38:24.243Z,99776.01
2019-02-14T12:40:53.698Z,99761.84
2019-02-14T12:43:24.273Z,99761.61
2019-02-14T12:45:53.735Z,99769.30
2019-02-14T12:48:24.251Z,99767.69
2019-02-14T12:50:53.728Z,99763.73
2019-02-14T12:53:24.422Z,99767.14
2019-02-14T12:55:53.909Z,99757.48
2019-02-14T12:58:24.428Z,99752.91
2019-02-14T13:00:53.897Z,99751.76
2019-02-14T13:03:24.419Z,99753.83
2019-02-14T13:05:53.899Z,99752.38
2019-02-14T13:08:24.445Z,99749.84
2019-02-14T13:10:53.918Z,99742.16
2019-02-14T13:13:24.457Z,99746.01
2019-02-14T13:15:53.950Z,99736.64
2019-02-14T13:18:24.650Z,99724.91
2019-02-14T13:20:54.121Z,99728.01
2019-02-14T13:23:24.631Z,99725.95
2019-02-14T13:25:54.090Z,99729.63
2019-02-14T13:28:24.622Z,99722.77
2019-02-14T13:30:54.080Z,99723.75
2019-02-14T13:33:24.647Z,99712.30
2019-02-14T13:35:54.102Z,99710.20
2019-02-14T13:38:24.610Z,99704.77
2019-02-14T13:40:54.692Z,99706.74
2019-02-14T13:43:24.622Z,99702.27
2019-02-14T13:45:54.080Z,99701.95
2019-02-14T13:48:24.660Z,99699.56
2019-02-14T13:50:54.117Z,99689.98
2019-02-14T13:53:24.669Z,99687.10
2019-02-14T13:55:54.151Z,99680.49
2019-02-14T13:58:24.635Z,99690.59
2019-02-14T14:00:54.114Z,99689.08
2019-02-14T14:03:24.638Z,99693.42
2019-02-14T14:05:54.123Z,99683.15
2019-02-14T14:08:24.912Z,99687.63
2019-02-14T14:10:54.375Z,99686.16
2019-02-14T14:13:24.834Z,99684.98
2019-02-14T14:15:54.289Z,99687.31
2019-02-14T14:18:24.984Z,99686.36
2019-02-14T14:20:54.467Z,99684.39
2019-02-14T14:23:25.014Z,99681.73
2019-02-14T14:25:54.486Z,99690.20
2019-02-14T14:28:25.006Z,99685.05
2019-02-14T14:30:54.479Z,99685.53
2019-02-14T14:33:25.049Z,99679.66
2019-02-14T14:35:54.497Z,99687.99
2019-02-14T14:38:25.015Z,99685.16
2019-02-14T14:40:54.493Z,99681.94
2019-02-14T14:43:32.376Z,99677.90
2019-02-14T14:46:12.053Z,99675.73
2019-02-14T14:48:41.513Z,99672.23
2019-02-14T14:51:11.123Z,99669.34
2019-02-14T14:53:41.129Z,99671.59
2019-02-14T14:56:10.778Z,99674.88
2019-02-14T14:58:40.244Z,99672.48
2019-02-14T15:01:09.726Z,99677.67
2019-02-14T15:03:40.688Z,99678.02
2019-02-14T15:06:10.246Z,99672.75
2019-02-14T15:08:39.728Z,99679.08
2019-02-14T15:11:09.191Z,99677.62
2019-02-14T15:13:38.649Z,99671.63
2019-02-14T15:16:08.141Z,99666.59
2019-02-14T15:18:37.599Z,99671.78
2019-02-14T15:21:07.087Z,99665.96
2019-02-14T15:23:36.550Z,99672.19
2019-02-14T15:26:06.012Z,99666.14
2019-02-14T15:28:37.472Z,99666.92
2019-02-14T15:31:06.669Z,99666.44
2019-02-14T15:33:36.136Z,99664.13
2019-02-14T15:36:05.614Z,99670.86
2019-02-14T15:38:37.039Z,99678.57
2019-02-14T15:41:06.279Z,99667.47
2019-02-14T15:43:35.745Z,99670.27
2019-02-14T15:46:05.277Z,99672.23
2019-02-14T15:48:34.761Z,99671.13
2019-02-14T15:51:04.214Z,99670.87
2019-02-14T15:53:33.674Z,99678.95
2019-02-14T15:56:03.757Z,99678.25
2019-02-14T15:58:34.334Z,99677.38
2019-02-14T16:01:03.813Z,99680.46
2019-02-14T16:03:33.275Z,99693.98
2019-02-14T16:06:04.514Z,99697.83
2019-02-14T16:08:33.941Z,99700.86
2019-02-14T16:11:03.389Z,99696.09
2019-02-14T16:13:33.663Z,99693.52
2019-02-14T16:16:03.185Z,99693.56
2019-02-14T16:18:32.670Z,99697.01
2019-02-14T16:21:03.720Z,99694.87
2019-02-14T16:23:34.329Z,99695.30
2019-02-14T16:26:03.880Z,99695.66
2019-02-14T16:28:33.349Z,99701.69
2019-02-14T16:31:02.822Z,99698.63
2019-02-14T16:33:32.284Z,99700.72
2019-02-14T16:36:01.759Z,99699.77
2019-02-14T16:38:32.990Z,99692.84
2019-02-14T16:41:02.436Z,99698.69
2019-02-14T16:43:31.988Z,99704.05
2019-02-14T16:46:01.468Z,99706.86
2019-02-14T16:48:30.939Z,99700.88
2019-02-14T16:51:00.382Z,99700.02
2019-02-14T16:53:29.863Z,99701.77
2019-02-14T16:56:02.205Z,99702.13
2019-02-14T16:58:30.764Z,99694.59
2019-02-14T17:01:00.229Z,99697.66
2019-02-14T17:03:29.684Z,99703.33
2019-02-14T17:05:59.156Z,99709.22
2019-02-14T17:08:28.609Z,99708.31
2019-02-14T17:10:58.082Z,99709.27
2019-02-14T17:13:27.541Z,99710.74
2019-02-14T17:15:56.995Z,99707.20
2019-02-14T17:18:26.478Z,99704.92
2019-02-14T17:20:55.938Z,99712.73
2019-02-14T17:23:25.406Z,99719.70
2019-02-14T17:25:54.870Z,99731.45
2019-02-14T17:28:25.383Z,99733.30
2019-02-14T17:30:54.870Z,99733.73
2019-02-14T17:33:25.552Z,99734.94
2019-02-14T17:35:55.024Z,99733.25
2019-02-14T17:38:25.402Z,99735.52
2019-02-14T17:40:54.856Z,99738.65
2019-02-14T17:43:25.387Z,99739.74
2019-02-14T17:45:54.863Z,99738.22
2019-02-14T17:48:26.623Z,99743.53
2019-02-14T17:50:56.102Z,99735.84
2019-02-14T17:53:25.574Z,99736.59
2019-02-14T17:55:55.034Z,99742.98
2019-02-14T17:58:26.428Z,99738.54
2019-02-14T18:00:55.886Z,99737.26
2019-02-14T18:03:25.428Z,99740.40
2019-02-14T18:05:55.145Z,99740.50
2019-02-14T18:08:25.447Z,99730.19
2019-02-14T18:10:55.341Z,99734.22
2019-02-14T18:13:25.419Z,99725.64
2019-02-14T18:15:54.885Z,99732.24
2019-02-14T18:18:25.427Z,99729.20
2019-02-14T18:20:54.896Z,99724.27
2019-02-14T18:23:25.438Z,99729.06
2019-02-14T18:25:54.884Z,99730.60
2019-02-14T18:28:25.451Z,99737.62
2019-02-14T18:30:54.913Z,99740.85
2019-02-14T18:33:25.459Z,99736.00
2019-02-14T18:35:54.912Z,99733.77
2019-02-14T18:38:25.465Z,99729.45
2019-02-14T18:41:03.614Z,99729.84
2019-02-14T18:43:26.092Z,99733.86
2019-02-14T18:45:55.570Z,99732.39
2019-02-14T18:48:25.452Z,99738.11
2019-02-14T18:50:54.915Z,99736.64
2019-02-14T18:53:25.471Z,99740.71
2019-02-14T18:55:54.950Z,99742.40
2019-02-14T18:58:26.713Z,99741.54
2019-02-14T19:00:56.324Z,99733.98
2019-02-14T19:03:25.855Z,99731.39
2019-02-14T19:05:55.336Z,99727.12
2019-02-14T19:08:25.466Z,99722.36
2019-02-14T19:10:54.922Z,99724.11
2019-02-14T19:13:25.502Z,99723.20
2019-02-14T19:15:54.946Z,99730.05
2019-02-14T19:18:25.664Z,99733.03
2019-02-14T19:20:55.147Z,99734.00
2019-02-14T19:23:25.477Z,99736.17
2019-02-14T19:25:54.967Z,99733.73
2019-02-14T19:28:25.482Z,99740.58
2019-02-14T19:30:55.201Z,99735.44
2019-02-14T19:33:26.470Z,99739.87
2019-02-14T19:35:55.929Z,99733.67
2019-02-14T19:38:25.716Z,99724.83
2019-02-14T19:40:55.190Z,99716.02
2019-02-14T19:43:25.582Z,99717.73
2019-02-14T19:45:55.081Z,99720.42
2019-02-14T19:48:25.503Z,99722.32
2019-02-14T19:50:54.974Z,99731.65
2019-02-14T19:53:25.470Z,99722.72
2019-02-14T19:55:54.948Z,99721.22
2019-02-14T19:58:25.537Z,99722.45
2019-02-14T20:00:54.966Z,99722.45
2019-02-14T20:03:25.915Z,99717.36
2019-02-14T20:05:55.386Z,99707.13
2019-02-14T20:08:25.483Z,99703.23
2019-02-14T20:10:54.941Z,99713.30
2019-02-14T20:13:25.540Z,99710.84
2019-02-14T20:15:55.003Z,99714.70
2019-02-14T20:18:25.514Z,99712.52
2019-02-14T20:20:55.255Z,99716.38
2019-02-14T20:23:25.534Z,99720.36
2019-02-14T20:25:54.990Z,99721.70
2019-02-14T20:28:25.550Z,99724.87
2019-02-14T20:30:55.071Z,99721.90
2019-02-14T20:33:25.524Z,99721.44
2019-02-14T20:35:54.977Z,99716.06
2019-02-14T20:38:25.567Z,99715.67
2019-02-14T20:40:55.021Z,99719.13
2019-02-14T20:43:25.737Z,99721.74
2019-02-14T20:45:55.202Z,99724.38
2019-02-14T20:48:25.720Z,99723.89
2019-02-14T20:50:55.176Z,99722.70
2019-02-14T20:53:25.816Z,99721.13
2019-02-14T20:55:55.257Z,99720.78
2019-02-14T20:58:25.733Z,99719.91
2019-02-14T21:00:55.323Z,99718.81
2019-02-14T21:03:25.897Z,99722.91
2019-02-14T21:05:55.350Z,99720.36
2019-02-14T21:08:25.903Z,99721.70
2019-02-14T21:10:55.430Z,99725.30
2019-02-14T21:13:25.896Z,99721.21
2019-02-14T21:15:55.368Z,99723.30
2019-02-14T21:18:25.904Z,99723.15
2019-02-14T21:20:55.381Z,99722.03
2019-02-14T21:23:25.920Z,99719.55
2019-02-14T21:25:56.271Z,99717.54
2019-02-14T21:28:25.917Z,99723.71
2019-02-14T21:30:55.373Z,99724.58
2019-02-14T21:33:25.989Z,99723.98
2019-02-14T21:35:55.469Z,99722.10
2019-02-14T21:38:26.190Z,99720.41
2019-02-14T21:40:55.836Z,99721.62
2019-02-14T21:43:25.919Z,99722.30
2019-02-14T21:45:55.405Z,99717.42
2019-02-14T21:48:25.945Z,99717.22
2019-02-14T21:50:55.476Z,99715.12
2019-02-14T21:53:25.944Z,99714.61
2019-02-14T21:55:55.408Z,99720.70
2019-02-14T21:58:25.959Z,99721.07
2019-02-14T22:00:55.425Z,99719.53
2019-02-14T22:03:26.052Z,99722.37
2019-02-14T22:05:55.496Z,99713.39
2019-02-14T22:08:26.042Z,99718.47
2019-02-14T22:10:55.534Z,99720.55
2019-02-14T22:13:25.965Z,99717.68
2019-02-14T22:15:55.547Z,99718.81
2019-02-14T22:18:26.017Z,99715.12
2019-02-14T22:20:55.464Z,99715.92
2019-02-14T22:23:25.963Z,99721.44
2019-02-14T22:25:55.417Z,99723.27
2019-02-14T22:28:25.925Z,99720.43
2019-02-14T22:30:55.383Z,99721.50
2019-02-14T22:33:25.937Z,99722.43
2019-02-14T22:35:55.434Z,99725.63
2019-02-14T22:38:25.930Z,99722.53
2019-02-14T22:40:55.415Z,99719.53
2019-02-14T22:43:25.934Z,99721.52
2019-02-14T22:45:56.346Z,99722.58
2019-02-14T22:48:25.978Z,99721.45
2019-02-14T22:50:55.446Z,99727.20
2019-02-14T22:53:25.964Z,99728.70
2019-02-14T22:55:55.423Z,99731.50
2019-02-14T22:58:25.960Z,99727.34
2019-02-14T23:00:58.130Z,99727.00
2019-02-14T23:03:27.663Z,99731.46
2019-02-14T23:05:57.116Z,99731.19
2019-02-14T23:08:26.573Z,99731.50
2019-02-14T23:10:56.047Z,99734.70
2019-02-14T23:13:26.057Z,99737.75
2019-02-14T23:15:55.580Z,99739.42
2019-02-14T23:18:26.441Z,99731.61
2019-02-14T23:20:55.902Z,99736.48
2019-02-14T23:23:25.983Z,99734.73
2019-02-14T23:25:55.432Z,99733.83
2019-02-14T23:28:26.004Z,99734.25
2019-02-14T23:30:55.465Z,99736.38
2019-02-14T23:33:25.980Z,99735.77
2019-02-14T23:35:55.473Z,99734.25
2019-02-14T23:38:25.970Z,99737.28
2019-02-14T23:40:55.441Z,99739.73
2019-02-14T23:43:25.985Z,99741.61
2019-02-14T23:45:55.442Z,99734.86
2019-02-14T23:48:26.013Z,99728.42
2019-02-14T23:50:55.483Z,99731.55
2019-02-14T23:53:26.092Z,99733.89
2019-02-14T23:55:55.543Z,99736.61
2019-02-14T23:58:25.993Z,99735.00
